sensor_id;sensor_type;location;lat;lon;timestamp;P1;durP1;ratioP1;P2;durP2;ratioP2
8652;SDS011;4364;52.426;9.424;2023-06-22T00:01:32;15.20;;;13.60;;
8652;SDS011;4364;52.426;9.424;2023-06-22T00:03:59;16.00;;;14.23;;
8652;SDS011;4364;52.426;9.424;2023-06-22T00:06:25;16.03;;;14.53;;
8652;SDS011;4364;52.426;9.424;2023-06-22T00:08:52;15.30;;;13.80;;
8652;SDS011;4364;52.426;9.424;2023-06-22T00:11:18;15.07;;;13.43;;
8652;SDS011;4364;52.426;9.424;2023-06-22T00:13:46;15.13;;;13.63;;
8652;SDS011;4364;52.426;9.424;2023-06-22T00:16:13;15.00;;;13.43;;
8652;SDS011;4364;52.426;9.424;2023-06-22T00:18:40;14.40;;;12.90;;
8652;SDS011;4364;52.426;9.424;2023-06-22T00:21:13;14.37;;;13.07;;
8652;SDS011;4364;52.426;9.424;2023-06-22T00:23:39;14.87;;;13.37;;
8652;SDS011;4364;52.426;9.424;2023-06-22T00:26:06;14.13;;;12.73;;
8652;SDS011;4364;52.426;9.424;2023-06-22T00:28:33;14.43;;;12.97;;
8652;SDS011;4364;52.426;9.424;2023-06-22T00:31:00;14.27;;;12.87;;
8652;SDS011;4364;52.426;9.424;2023-06-22T00:33:27;14.83;;;13.33;;
8652;SDS011;4364;52.426;9.424;2023-06-22T00:35:54;13.83;;;12.53;;
8652;SDS011;4364;52.426;9.424;2023-06-22T00:38:21;13.27;;;11.97;;
8652;SDS011;4364;52.426;9.424;2023-06-22T00:40:47;14.63;;;13.13;;
8652;SDS011;4364;52.426;9.424;2023-06-22T00:43:14;14.17;;;12.77;;
8652;SDS011;4364;52.426;9.424;2023-06-22T00:45:41;14.13;;;12.83;;
8652;SDS011;4364;52.426;9.424;2023-06-22T00:48:08;14.27;;;12.87;;
8652;SDS011;4364;52.426;9.424;2023-06-22T00:50:35;14.43;;;12.93;;
8652;SDS011;4364;52.426;9.424;2023-06-22T00:53:06;14.63;;;13.13;;
8652;SDS011;4364;52.426;9.424;2023-06-22T00:55:41;14.33;;;12.93;;
8652;SDS011;4364;52.426;9.424;2023-06-22T00:58:13;14.17;;;12.70;;
8652;SDS011;4364;52.426;9.424;2023-06-22T01:00:40;13.50;;;12.17;;
8652;SDS011;4364;52.426;9.424;2023-06-22T01:03:07;15.40;;;13.90;;
8652;SDS011;4364;52.426;9.424;2023-06-22T01:05:35;15.10;;;13.60;;
8652;SDS011;4364;52.426;9.424;2023-06-22T01:16:27;14.20;;;12.47;;
8652;SDS011;4364;52.426;9.424;2023-06-22T01:18:57;14.63;;;13.23;;
8652;SDS011;4364;52.426;9.424;2023-06-22T01:21:28;15.00;;;13.33;;
8652;SDS011;4364;52.426;9.424;2023-06-22T01:29:36;16.40;;;13.63;;
8652;SDS011;4364;52.426;9.424;2023-06-22T01:32:05;15.20;;;13.77;;
8652;SDS011;4364;52.426;9.424;2023-06-22T01:34:35;15.83;;;14.23;;
8652;SDS011;4364;52.426;9.424;2023-06-22T01:37:03;16.70;;;14.27;;
8652;SDS011;4364;52.426;9.424;2023-06-22T01:39:30;14.63;;;13.13;;
8652;SDS011;4364;52.426;9.424;2023-06-22T01:41:58;15.10;;;13.60;;
8652;SDS011;4364;52.426;9.424;2023-06-22T01:44:25;13.90;;;12.60;;
8652;SDS011;4364;52.426;9.424;2023-06-22T01:46:52;15.00;;;13.50;;
8652;SDS011;4364;52.426;9.424;2023-06-22T01:49:19;15.43;;;13.83;;
8652;SDS011;4364;52.426;9.424;2023-06-22T01:51:46;15.33;;;13.60;;
8652;SDS011;4364;52.426;9.424;2023-06-22T01:54:13;14.27;;;12.87;;
8652;SDS011;4364;52.426;9.424;2023-06-22T01:56:39;16.33;;;14.73;;
8652;SDS011;4364;52.426;9.424;2023-06-22T01:59:23;15.10;;;13.73;;
8652;SDS011;4364;52.426;9.424;2023-06-22T02:02:00;15.37;;;13.77;;
8652;SDS011;4364;52.426;9.424;2023-06-22T02:04:37;14.33;;;12.90;;
8652;SDS011;4364;52.426;9.424;2023-06-22T02:07:12;14.50;;;13.10;;
8652;SDS011;4364;52.426;9.424;2023-06-22T02:09:45;15.13;;;13.57;;
8652;SDS011;4364;52.426;9.424;2023-06-22T02:12:17;14.73;;;13.33;;
8652;SDS011;4364;52.426;9.424;2023-06-22T02:14:46;15.87;;;14.27;;
8652;SDS011;4364;52.426;9.424;2023-06-22T02:17:14;14.10;;;12.70;;
8652;SDS011;4364;52.426;9.424;2023-06-22T02:19:41;13.83;;;12.07;;
8652;SDS011;4364;52.426;9.424;2023-06-22T02:22:07;15.13;;;13.73;;
8652;SDS011;4364;52.426;9.424;2023-06-22T02:24:35;14.73;;;13.33;;
8652;SDS011;4364;52.426;9.424;2023-06-22T02:27:02;14.97;;;13.43;;
8652;SDS011;4364;52.426;9.424;2023-06-22T02:29:31;14.60;;;13.27;;
8652;SDS011;4364;52.426;9.424;2023-06-22T02:31:58;14.90;;;13.47;;
8652;SDS011;4364;52.426;9.424;2023-06-22T02:34:24;17.83;;;14.27;;
8652;SDS011;4364;52.426;9.424;2023-06-22T02:36:52;14.73;;;13.23;;
8652;SDS011;4364;52.426;9.424;2023-06-22T02:39:19;13.83;;;12.47;;
8652;SDS011;4364;52.426;9.424;2023-06-22T02:41:49;15.27;;;13.77;;
8652;SDS011;4364;52.426;9.424;2023-06-22T02:44:17;15.27;;;13.23;;
8652;SDS011;4364;52.426;9.424;2023-06-22T02:46:44;15.87;;;14.17;;
8652;SDS011;4364;52.426;9.424;2023-06-22T02:49:14;13.90;;;12.60;;
8652;SDS011;4364;52.426;9.424;2023-06-22T02:51:44;14.63;;;13.23;;
8652;SDS011;4364;52.426;9.424;2023-06-22T02:54:14;15.73;;;14.13;;
8652;SDS011;4364;52.426;9.424;2023-06-22T02:56:41;14.70;;;13.30;;
8652;SDS011;4364;52.426;9.424;2023-06-22T02:59:10;14.67;;;13.17;;
8652;SDS011;4364;52.426;9.424;2023-06-22T03:01:37;14.57;;;13.10;;
8652;SDS011;4364;52.426;9.424;2023-06-22T03:04:15;14.33;;;12.93;;
8652;SDS011;4364;52.426;9.424;2023-06-22T03:06:42;15.83;;;14.23;;
8652;SDS011;4364;52.426;9.424;2023-06-22T03:09:09;15.40;;;13.80;;
8652;SDS011;4364;52.426;9.424;2023-06-22T03:11:36;16.07;;;14.47;;
8652;SDS011;4364;52.426;9.424;2023-06-22T03:14:03;15.63;;;13.50;;
8652;SDS011;4364;52.426;9.424;2023-06-22T03:16:29;15.07;;;13.67;;
8652;SDS011;4364;52.426;9.424;2023-06-22T03:18:56;15.57;;;13.97;;
8652;SDS011;4364;52.426;9.424;2023-06-22T03:21:23;14.63;;;13.23;;
8652;SDS011;4364;52.426;9.424;2023-06-22T03:23:51;15.07;;;13.70;;
8652;SDS011;4364;52.426;9.424;2023-06-22T03:26:17;15.40;;;13.87;;
8652;SDS011;4364;52.426;9.424;2023-06-22T03:28:44;15.80;;;14.30;;
8652;SDS011;4364;52.426;9.424;2023-06-22T03:31:11;16.00;;;14.40;;
8652;SDS011;4364;52.426;9.424;2023-06-22T03:33:39;15.13;;;13.77;;
8652;SDS011;4364;52.426;9.424;2023-06-22T03:36:06;15.43;;;13.47;;
8652;SDS011;4364;52.426;9.424;2023-06-22T03:38:33;15.60;;;14.20;;
8652;SDS011;4364;52.426;9.424;2023-06-22T03:41:00;16.00;;;14.53;;
8652;SDS011;4364;52.426;9.424;2023-06-22T03:43:28;16.03;;;14.37;;
8652;SDS011;4364;52.426;9.424;2023-06-22T03:45:55;15.07;;;13.67;;
8652;SDS011;4364;52.426;9.424;2023-06-22T03:48:21;16.23;;;14.57;;
8652;SDS011;4364;52.426;9.424;2023-06-22T03:50:48;16.70;;;15.00;;
8652;SDS011;4364;52.426;9.424;2023-06-22T03:53:14;16.80;;;15.03;;
8652;SDS011;4364;52.426;9.424;2023-06-22T03:55:47;16.10;;;14.60;;
8652;SDS011;4364;52.426;9.424;2023-06-22T03:58:16;16.13;;;14.63;;
8652;SDS011;4364;52.426;9.424;2023-06-22T04:00:49;18.07;;;14.97;;
8652;SDS011;4364;52.426;9.424;2023-06-22T04:03:16;16.80;;;15.00;;
8652;SDS011;4364;52.426;9.424;2023-06-22T04:05:45;16.17;;;14.57;;
8652;SDS011;4364;52.426;9.424;2023-06-22T04:08:12;16.90;;;14.50;;
8652;SDS011;4364;52.426;9.424;2023-06-22T04:10:39;17.67;;;15.87;;
8652;SDS011;4364;52.426;9.424;2023-06-22T04:13:06;17.27;;;15.57;;
8652;SDS011;4364;52.426;9.424;2023-06-22T04:15:33;17.23;;;15.50;;
8652;SDS011;4364;52.426;9.424;2023-06-22T04:17:59;16.03;;;14.23;;
8652;SDS011;4364;52.426;9.424;2023-06-22T04:20:26;16.80;;;15.00;;
8652;SDS011;4364;52.426;9.424;2023-06-22T04:22:55;15.97;;;14.33;;
8652;SDS011;4364;52.426;9.424;2023-06-22T04:25:21;16.03;;;14.37;;
8652;SDS011;4364;52.426;9.424;2023-06-22T04:27:48;17.23;;;15.53;;
8652;SDS011;4364;52.426;9.424;2023-06-22T04:30:15;16.30;;;14.70;;
8652;SDS011;4364;52.426;9.424;2023-06-22T04:32:43;17.07;;;15.37;;
8652;SDS011;4364;52.426;9.424;2023-06-22T04:35:10;17.23;;;15.37;;
8652;SDS011;4364;52.426;9.424;2023-06-22T04:37:37;15.50;;;13.97;;
8652;SDS011;4364;52.426;9.424;2023-06-22T04:40:05;16.17;;;14.57;;
8652;SDS011;4364;52.426;9.424;2023-06-22T04:42:33;15.93;;;14.43;;
8652;SDS011;4364;52.426;9.424;2023-06-22T04:45:02;16.17;;;14.67;;
8652;SDS011;4364;52.426;9.424;2023-06-22T04:47:29;17.23;;;15.60;;
8652;SDS011;4364;52.426;9.424;2023-06-22T04:49:56;15.63;;;14.13;;
8652;SDS011;4364;52.426;9.424;2023-06-22T04:52:22;16.93;;;15.13;;
8652;SDS011;4364;52.426;9.424;2023-06-22T04:54:50;15.90;;;14.40;;
8652;SDS011;4364;52.426;9.424;2023-06-22T04:57:23;16.10;;;14.40;;
8652;SDS011;4364;52.426;9.424;2023-06-22T04:59:59;16.20;;;14.50;;
8652;SDS011;4364;52.426;9.424;2023-06-22T05:02:28;16.93;;;15.20;;
8652;SDS011;4364;52.426;9.424;2023-06-22T05:04:58;17.93;;;16.07;;
8652;SDS011;4364;52.426;9.424;2023-06-22T05:07:24;15.83;;;14.30;;
8652;SDS011;4364;52.426;9.424;2023-06-22T05:09:51;19.67;;;15.53;;
8652;SDS011;4364;52.426;9.424;2023-06-22T05:12:18;16.67;;;14.77;;
8652;SDS011;4364;52.426;9.424;2023-06-22T05:14:44;18.27;;;14.93;;
8652;SDS011;4364;52.426;9.424;2023-06-22T05:17:11;16.47;;;14.87;;
8652;SDS011;4364;52.426;9.424;2023-06-22T05:19:41;16.60;;;14.90;;
8652;SDS011;4364;52.426;9.424;2023-06-22T05:22:11;16.63;;;14.40;;
8652;SDS011;4364;52.426;9.424;2023-06-22T05:24:38;15.97;;;14.47;;
8652;SDS011;4364;52.426;9.424;2023-06-22T05:27:05;16.83;;;15.13;;
8652;SDS011;4364;52.426;9.424;2023-06-22T05:29:31;16.40;;;14.80;;
8652;SDS011;4364;52.426;9.424;2023-06-22T05:31:58;16.37;;;14.63;;
8652;SDS011;4364;52.426;9.424;2023-06-22T05:34:24;18.30;;;16.37;;
8652;SDS011;4364;52.426;9.424;2023-06-22T05:36:51;20.33;;;15.40;;
8652;SDS011;4364;52.426;9.424;2023-06-22T05:39:17;18.70;;;15.47;;
8652;SDS011;4364;52.426;9.424;2023-06-22T05:41:44;16.60;;;14.97;;
8652;SDS011;4364;52.426;9.424;2023-06-22T05:44:11;18.07;;;16.27;;
8652;SDS011;4364;52.426;9.424;2023-06-22T05:46:42;17.33;;;15.53;;
8652;SDS011;4364;52.426;9.424;2023-06-22T05:49:11;17.77;;;14.23;;
8652;SDS011;4364;52.426;9.424;2023-06-22T05:51:38;17.17;;;15.43;;
8652;SDS011;4364;52.426;9.424;2023-06-22T05:54:05;18.40;;;16.50;;
8652;SDS011;4364;52.426;9.424;2023-06-22T05:56:32;15.40;;;13.90;;
8652;SDS011;4364;52.426;9.424;2023-06-22T05:58:59;16.70;;;15.00;;
8652;SDS011;4364;52.426;9.424;2023-06-22T06:01:25;17.07;;;14.90;;
8652;SDS011;4364;52.426;9.424;2023-06-22T06:03:55;16.73;;;15.13;;
8652;SDS011;4364;52.426;9.424;2023-06-22T06:06:21;16.43;;;14.83;;
8652;SDS011;4364;52.426;9.424;2023-06-22T06:08:54;17.73;;;15.90;;
8652;SDS011;4364;52.426;9.424;2023-06-22T06:11:21;16.73;;;15.10;;
8652;SDS011;4364;52.426;9.424;2023-06-22T06:13:48;16.47;;;14.70;;
8652;SDS011;4364;52.426;9.424;2023-06-22T06:16:15;16.80;;;15.27;;
8652;SDS011;4364;52.426;9.424;2023-06-22T06:18:41;15.73;;;14.27;;
8652;SDS011;4364;52.426;9.424;2023-06-22T06:21:08;16.03;;;14.43;;
8652;SDS011;4364;52.426;9.424;2023-06-22T06:23:34;16.23;;;14.60;;
8652;SDS011;4364;52.426;9.424;2023-06-22T06:26:01;16.77;;;15.17;;
8652;SDS011;4364;52.426;9.424;2023-06-22T06:28:28;17.17;;;15.40;;
8652;SDS011;4364;52.426;9.424;2023-06-22T06:30:54;16.77;;;15.07;;
8652;SDS011;4364;52.426;9.424;2023-06-22T06:33:21;16.23;;;14.53;;
8652;SDS011;4364;52.426;9.424;2023-06-22T06:35:51;16.43;;;14.20;;
8652;SDS011;4364;52.426;9.424;2023-06-22T06:38:17;16.43;;;14.43;;
8652;SDS011;4364;52.426;9.424;2023-06-22T06:40:44;16.53;;;14.83;;
8652;SDS011;4364;52.426;9.424;2023-06-22T06:43:11;16.57;;;14.93;;
8652;SDS011;4364;52.426;9.424;2023-06-22T06:45:37;16.97;;;15.27;;
8652;SDS011;4364;52.426;9.424;2023-06-22T06:48:04;15.00;;;13.50;;
8652;SDS011;4364;52.426;9.424;2023-06-22T06:50:31;16.60;;;14.90;;
8652;SDS011;4364;52.426;9.424;2023-06-22T06:52:58;15.60;;;14.10;;
8652;SDS011;4364;52.426;9.424;2023-06-22T06:55:28;16.03;;;14.30;;
8652;SDS011;4364;52.426;9.424;2023-06-22T06:57:54;14.73;;;12.53;;
8652;SDS011;4364;52.426;9.424;2023-06-22T07:00:21;15.53;;;13.90;;
8652;SDS011;4364;52.426;9.424;2023-06-22T07:02:48;18.73;;;12.87;;
8652;SDS011;4364;52.426;9.424;2023-06-22T07:05:15;13.27;;;12.07;;
8652;SDS011;4364;52.426;9.424;2023-06-22T07:07:42;14.57;;;13.00;;
8652;SDS011;4364;52.426;9.424;2023-06-22T07:10:09;12.63;;;11.43;;
8652;SDS011;4364;52.426;9.424;2023-06-22T07:12:36;14.50;;;12.37;;
8652;SDS011;4364;52.426;9.424;2023-06-22T07:15:04;14.63;;;13.13;;
8652;SDS011;4364;52.426;9.424;2023-06-22T07:17:32;14.52;;;13.00;;
8652;SDS011;4364;52.426;9.424;2023-06-22T07:19:58;13.95;;;12.43;;
8652;SDS011;4364;52.426;9.424;2023-06-22T07:22:25;13.30;;;11.25;;
8652;SDS011;4364;52.426;9.424;2023-06-22T07:24:52;11.80;;;10.43;;
8652;SDS011;4364;52.426;9.424;2023-06-22T07:27:18;12.18;;;10.88;;
8652;SDS011;4364;52.426;9.424;2023-06-22T07:29:46;12.88;;;11.52;;
8652;SDS011;4364;52.426;9.424;2023-06-22T07:32:13;13.88;;;11.00;;
8652;SDS011;4364;52.426;9.424;2023-06-22T07:34:39;14.38;;;11.35;;
8652;SDS011;4364;52.426;9.424;2023-06-22T07:37:06;11.52;;;9.90;;
8652;SDS011;4364;52.426;9.424;2023-06-22T07:39:33;12.48;;;10.23;;
8652;SDS011;4364;52.426;9.424;2023-06-22T07:41:59;11.70;;;9.95;;
8652;SDS011;4364;52.426;9.424;2023-06-22T07:44:26;12.63;;;11.32;;
8652;SDS011;4364;52.426;9.424;2023-06-22T07:46:52;11.77;;;9.93;;
8652;SDS011;4364;52.426;9.424;2023-06-22T07:49:19;11.63;;;9.88;;
8652;SDS011;4364;52.426;9.424;2023-06-22T07:51:45;10.43;;;8.80;;
8652;SDS011;4364;52.426;9.424;2023-06-22T07:54:11;8.65;;;7.75;;
8652;SDS011;4364;52.426;9.424;2023-06-22T07:56:38;10.25;;;7.75;;
8652;SDS011;4364;52.426;9.424;2023-06-22T07:59:05;10.10;;;7.70;;
8652;SDS011;4364;52.426;9.424;2023-06-22T08:01:32;8.55;;;7.50;;
8652;SDS011;4364;52.426;9.424;2023-06-22T08:03:58;9.07;;;8.10;;
8652;SDS011;4364;52.426;9.424;2023-06-22T08:06:25;9.20;;;8.07;;
8652;SDS011;4364;52.426;9.424;2023-06-22T08:08:52;8.68;;;7.88;;
8652;SDS011;4364;52.426;9.424;2023-06-22T08:11:20;9.23;;;8.32;;
8652;SDS011;4364;52.426;9.424;2023-06-22T08:13:49;10.38;;;8.77;;
8652;SDS011;4364;52.426;9.424;2023-06-22T08:16:15;10.07;;;8.60;;
8652;SDS011;4364;52.426;9.424;2023-06-22T08:18:43;9.88;;;8.30;;
8652;SDS011;4364;52.426;9.424;2023-06-22T08:21:09;9.77;;;8.68;;
8652;SDS011;4364;52.426;9.424;2023-06-22T08:23:37;10.35;;;9.23;;
8652;SDS011;4364;52.426;9.424;2023-06-22T08:26:04;10.27;;;8.68;;
8652;SDS011;4364;52.426;9.424;2023-06-22T08:28:30;9.80;;;7.90;;
8652;SDS011;4364;52.426;9.424;2023-06-22T08:30:57;11.50;;;8.98;;
8652;SDS011;4364;52.426;9.424;2023-06-22T08:33:24;10.00;;;8.43;;
8652;SDS011;4364;52.426;9.424;2023-06-22T08:35:55;9.20;;;8.30;;
8652;SDS011;4364;52.426;9.424;2023-06-22T08:38:21;9.60;;;8.52;;
8652;SDS011;4364;52.426;9.424;2023-06-22T08:40:48;10.18;;;9.18;;
8652;SDS011;4364;52.426;9.424;2023-06-22T08:43:14;9.07;;;8.25;;
8652;SDS011;4364;52.426;9.424;2023-06-22T08:45:41;10.57;;;9.57;;
8652;SDS011;4364;52.426;9.424;2023-06-22T08:48:09;10.48;;;9.18;;
8652;SDS011;4364;52.426;9.424;2023-06-22T08:50:36;10.60;;;8.80;;
8652;SDS011;4364;52.426;9.424;2023-06-22T08:53:02;10.73;;;9.63;;
8652;SDS011;4364;52.426;9.424;2023-06-22T08:55:29;11.30;;;10.10;;
8652;SDS011;4364;52.426;9.424;2023-06-22T08:57:56;10.00;;;9.00;;
8652;SDS011;4364;52.426;9.424;2023-06-22T09:00:22;11.05;;;8.82;;
8652;SDS011;4364;52.426;9.424;2023-06-22T09:02:50;11.07;;;10.05;;
8652;SDS011;4364;52.426;9.424;2023-06-22T09:05:16;10.40;;;9.20;;
8652;SDS011;4364;52.426;9.424;2023-06-22T09:07:43;10.43;;;9.32;;
8652;SDS011;4364;52.426;9.424;2023-06-22T09:10:10;11.77;;;8.73;;
8652;SDS011;4364;52.426;9.424;2023-06-22T09:12:37;10.10;;;9.10;;
8652;SDS011;4364;52.426;9.424;2023-06-22T09:15:04;14.13;;;10.82;;
8652;SDS011;4364;52.426;9.424;2023-06-22T09:17:37;11.65;;;10.43;;
8652;SDS011;4364;52.426;9.424;2023-06-22T09:20:04;11.77;;;10.18;;
8652;SDS011;4364;52.426;9.424;2023-06-22T09:22:33;11.73;;;10.10;;
8652;SDS011;4364;52.426;9.424;2023-06-22T09:25:00;11.68;;;10.32;;
8652;SDS011;4364;52.426;9.424;2023-06-22T09:27:27;11.20;;;10.00;;
8652;SDS011;4364;52.426;9.424;2023-06-22T09:29:54;12.73;;;10.25;;
8652;SDS011;4364;52.426;9.424;2023-06-22T09:32:20;13.30;;;10.02;;
8652;SDS011;4364;52.426;9.424;2023-06-22T09:34:47;10.48;;;8.85;;
8652;SDS011;4364;52.426;9.424;2023-06-22T09:37:13;13.13;;;10.48;;
8652;SDS011;4364;52.426;9.424;2023-06-22T09:39:40;12.57;;;9.95;;
8652;SDS011;4364;52.426;9.424;2023-06-22T09:42:07;10.90;;;9.80;;
8652;SDS011;4364;52.426;9.424;2023-06-22T09:44:34;11.35;;;9.73;;
8652;SDS011;4364;52.426;9.424;2023-06-22T09:47:00;14.55;;;10.23;;
8652;SDS011;4364;52.426;9.424;2023-06-22T09:49:28;14.15;;;10.20;;
8652;SDS011;4364;52.426;9.424;2023-06-22T09:52:12;12.15;;;10.15;;
8652;SDS011;4364;52.426;9.424;2023-06-22T09:54:39;12.65;;;10.65;;
8652;SDS011;4364;52.426;9.424;2023-06-22T09:57:06;12.57;;;10.73;;
8652;SDS011;4364;52.426;9.424;2023-06-22T09:59:32;11.63;;;10.35;;
8652;SDS011;4364;52.426;9.424;2023-06-22T10:01:59;12.40;;;9.98;;
8652;SDS011;4364;52.426;9.424;2023-06-22T10:04:50;10.80;;;9.70;;
8652;SDS011;4364;52.426;9.424;2023-06-22T10:07:17;9.75;;;8.80;;
8652;SDS011;4364;52.426;9.424;2023-06-22T10:09:44;12.63;;;10.93;;
8652;SDS011;4364;52.426;9.424;2023-06-22T10:12:10;10.35;;;8.88;;
8652;SDS011;4364;52.426;9.424;2023-06-22T10:14:37;12.38;;;11.15;;
8652;SDS011;4364;52.426;9.424;2023-06-22T10:17:03;11.85;;;10.48;;
8652;SDS011;4364;52.426;9.424;2023-06-22T10:19:30;12.93;;;11.10;;
8652;SDS011;4364;52.426;9.424;2023-06-22T10:21:57;11.88;;;10.57;;
8652;SDS011;4364;52.426;9.424;2023-06-22T10:24:23;14.40;;;10.95;;
8652;SDS011;4364;52.426;9.424;2023-06-22T10:26:50;12.52;;;11.02;;
8652;SDS011;4364;52.426;9.424;2023-06-22T10:29:16;13.35;;;10.55;;
8652;SDS011;4364;52.426;9.424;2023-06-22T10:31:43;13.30;;;11.98;;
8652;SDS011;4364;52.426;9.424;2023-06-22T10:34:09;14.30;;;11.30;;
8652;SDS011;4364;52.426;9.424;2023-06-22T10:36:36;13.80;;;12.15;;
8652;SDS011;4364;52.426;9.424;2023-06-22T10:39:02;12.70;;;10.60;;
8652;SDS011;4364;52.426;9.424;2023-06-22T10:41:29;14.55;;;11.63;;
8652;SDS011;4364;52.426;9.424;2023-06-22T10:43:57;15.05;;;12.23;;
8652;SDS011;4364;52.426;9.424;2023-06-22T10:46:24;12.35;;;11.15;;
8652;SDS011;4364;52.426;9.424;2023-06-22T10:48:52;13.25;;;11.65;;
8652;SDS011;4364;52.426;9.424;2023-06-22T10:51:20;12.30;;;10.85;;
8652;SDS011;4364;52.426;9.424;2023-06-22T10:53:47;13.10;;;11.55;;
8652;SDS011;4364;52.426;9.424;2023-06-22T10:56:14;11.90;;;10.70;;
8652;SDS011;4364;52.426;9.424;2023-06-22T10:58:40;13.48;;;12.18;;
8652;SDS011;4364;52.426;9.424;2023-06-22T11:01:07;14.18;;;11.23;;
8652;SDS011;4364;52.426;9.424;2023-06-22T11:03:42;12.07;;;10.98;;
8652;SDS011;4364;52.426;9.424;2023-06-22T11:06:09;13.38;;;11.98;;
8652;SDS011;4364;52.426;9.424;2023-06-22T11:08:35;12.65;;;11.02;;
8652;SDS011;4364;52.426;9.424;2023-06-22T11:11:02;13.20;;;11.85;;
8652;SDS011;4364;52.426;9.424;2023-06-22T11:13:28;16.17;;;12.18;;
8652;SDS011;4364;52.426;9.424;2023-06-22T11:15:55;13.13;;;11.40;;
8652;SDS011;4364;52.426;9.424;2023-06-22T11:18:21;12.50;;;11.32;;
8652;SDS011;4364;52.426;9.424;2023-06-22T11:20:49;15.30;;;13.73;;
8652;SDS011;4364;52.426;9.424;2023-06-22T11:23:44;14.30;;;12.73;;
8652;SDS011;4364;52.426;9.424;2023-06-22T11:26:11;14.98;;;13.35;;
8652;SDS011;4364;52.426;9.424;2023-06-22T11:28:38;15.98;;;12.40;;
8652;SDS011;4364;52.426;9.424;2023-06-22T11:31:04;14.75;;;13.35;;
8652;SDS011;4364;52.426;9.424;2023-06-22T11:33:50;14.52;;;12.98;;
8652;SDS011;4364;52.426;9.424;2023-06-22T11:36:17;13.90;;;12.57;;
8652;SDS011;4364;52.426;9.424;2023-06-22T11:38:44;14.18;;;12.68;;
8652;SDS011;4364;52.426;9.424;2023-06-22T11:41:11;14.32;;;12.82;;
8652;SDS011;4364;52.426;9.424;2023-06-22T11:43:37;14.63;;;12.68;;
8652;SDS011;4364;52.426;9.424;2023-06-22T11:46:04;15.18;;;13.55;;
8652;SDS011;4364;52.426;9.424;2023-06-22T11:48:31;14.93;;;13.43;;
8652;SDS011;4364;52.426;9.424;2023-06-22T11:50:58;15.27;;;13.55;;
8652;SDS011;4364;52.426;9.424;2023-06-22T11:53:26;15.32;;;13.70;;
8652;SDS011;4364;52.426;9.424;2023-06-22T11:55:53;15.93;;;14.40;;
8652;SDS011;4364;52.426;9.424;2023-06-22T11:58:21;15.05;;;13.48;;
8652;SDS011;4364;52.426;9.424;2023-06-22T12:00:48;15.15;;;13.55;;
8652;SDS011;4364;52.426;9.424;2023-06-22T12:03:18;14.27;;;12.77;;
8652;SDS011;4364;52.426;9.424;2023-06-22T12:05:45;17.92;;;16.10;;
8652;SDS011;4364;52.426;9.424;2023-06-22T12:08:11;16.75;;;15.15;;
8652;SDS011;4364;52.426;9.424;2023-06-22T12:10:39;16.25;;;14.52;;
8652;SDS011;4364;52.426;9.424;2023-06-22T12:13:06;15.05;;;13.55;;
8652;SDS011;4364;52.426;9.424;2023-06-22T12:15:32;15.73;;;14.23;;
8652;SDS011;4364;52.426;9.424;2023-06-22T12:17:59;15.98;;;13.60;;
8652;SDS011;4364;52.426;9.424;2023-06-22T12:20:27;14.73;;;13.32;;
8652;SDS011;4364;52.426;9.424;2023-06-22T12:22:54;14.50;;;13.00;;
8652;SDS011;4364;52.426;9.424;2023-06-22T12:25:22;14.70;;;13.32;;
8652;SDS011;4364;52.426;9.424;2023-06-22T12:27:49;13.82;;;12.60;;
8652;SDS011;4364;52.426;9.424;2023-06-22T12:30:16;13.57;;;12.18;;
8652;SDS011;4364;52.426;9.424;2023-06-22T12:32:43;14.00;;;12.68;;
8652;SDS011;4364;52.426;9.424;2023-06-22T12:35:09;13.68;;;12.30;;
8652;SDS011;4364;52.426;9.424;2023-06-22T12:37:43;13.75;;;12.45;;
8652;SDS011;4364;52.426;9.424;2023-06-22T12:40:10;15.02;;;13.55;;
8652;SDS011;4364;52.426;9.424;2023-06-22T12:42:37;13.68;;;12.38;;
8652;SDS011;4364;52.426;9.424;2023-06-22T12:45:04;12.93;;;11.73;;
8652;SDS011;4364;52.426;9.424;2023-06-22T12:47:31;13.02;;;11.82;;
8652;SDS011;4364;52.426;9.424;2023-06-22T12:49:58;13.63;;;12.23;;
8652;SDS011;4364;52.426;9.424;2023-06-22T12:52:24;13.95;;;12.65;;
8652;SDS011;4364;52.426;9.424;2023-06-22T12:54:51;13.93;;;12.43;;
8652;SDS011;4364;52.426;9.424;2023-06-22T12:57:21;14.05;;;12.75;;
8652;SDS011;4364;52.426;9.424;2023-06-22T12:59:48;13.30;;;11.93;;
8652;SDS011;4364;52.426;9.424;2023-06-22T13:02:14;13.15;;;11.70;;
8652;SDS011;4364;52.426;9.424;2023-06-22T13:04:41;13.73;;;12.43;;
8652;SDS011;4364;52.426;9.424;2023-06-22T13:07:09;13.57;;;12.07;;
8652;SDS011;4364;52.426;9.424;2023-06-22T13:09:39;12.00;;;10.90;;
8652;SDS011;4364;52.426;9.424;2023-06-22T13:12:05;13.95;;;12.48;;
8652;SDS011;4364;52.426;9.424;2023-06-22T13:14:32;13.27;;;11.98;;
8652;SDS011;4364;52.426;9.424;2023-06-22T13:16:59;13.05;;;11.95;;
8652;SDS011;4364;52.426;9.424;2023-06-22T13:19:25;13.88;;;12.57;;
8652;SDS011;4364;52.426;9.424;2023-06-22T13:21:55;13.63;;;12.32;;
8652;SDS011;4364;52.426;9.424;2023-06-22T13:24:21;13.35;;;12.13;;
8652;SDS011;4364;52.426;9.424;2023-06-22T13:26:48;13.65;;;12.25;;
8652;SDS011;4364;52.426;9.424;2023-06-22T13:29:14;13.43;;;12.20;;
8652;SDS011;4364;52.426;9.424;2023-06-22T13:31:41;13.88;;;12.65;;
8652;SDS011;4364;52.426;9.424;2023-06-22T13:34:08;14.05;;;12.65;;
8652;SDS011;4364;52.426;9.424;2023-06-22T13:36:34;13.93;;;12.52;;
8652;SDS011;4364;52.426;9.424;2023-06-22T13:39:01;13.88;;;12.68;;
8652;SDS011;4364;52.426;9.424;2023-06-22T13:41:27;14.13;;;12.63;;
8652;SDS011;4364;52.426;9.424;2023-06-22T13:43:54;13.52;;;12.23;;
8652;SDS011;4364;52.426;9.424;2023-06-22T13:46:21;14.30;;;13.05;;
8652;SDS011;4364;52.426;9.424;2023-06-22T13:48:47;14.68;;;13.27;;
8652;SDS011;4364;52.426;9.424;2023-06-22T13:51:14;13.82;;;12.43;;
8652;SDS011;4364;52.426;9.424;2023-06-22T13:53:40;16.25;;;14.57;;
8652;SDS011;4364;52.426;9.424;2023-06-22T13:56:07;15.38;;;13.77;;
8652;SDS011;4364;52.426;9.424;2023-06-22T13:58:33;16.00;;;14.50;;
8652;SDS011;4364;52.426;9.424;2023-06-22T14:01:00;16.45;;;14.70;;
8652;SDS011;4364;52.426;9.424;2023-06-22T14:03:27;16.00;;;14.40;;
8652;SDS011;4364;52.426;9.424;2023-06-22T14:05:53;15.32;;;13.93;;
8652;SDS011;4364;52.426;9.424;2023-06-22T14:08:21;15.85;;;14.35;;
8652;SDS011;4364;52.426;9.424;2023-06-22T14:10:52;17.20;;;15.50;;
8652;SDS011;4364;52.426;9.424;2023-06-22T14:13:20;16.02;;;14.38;;
8652;SDS011;4364;52.426;9.424;2023-06-22T14:15:46;15.50;;;14.00;;
8652;SDS011;4364;52.426;9.424;2023-06-22T14:18:14;16.70;;;15.00;;
8652;SDS011;4364;52.426;9.424;2023-06-22T14:20:41;16.50;;;14.85;;
8652;SDS011;4364;52.426;9.424;2023-06-22T14:23:08;16.98;;;15.23;;
8652;SDS011;4364;52.426;9.424;2023-06-22T14:25:35;17.73;;;15.85;;
8652;SDS011;4364;52.426;9.424;2023-06-22T14:28:01;18.33;;;16.45;;
8652;SDS011;4364;52.426;9.424;2023-06-22T14:30:28;17.50;;;15.68;;
8652;SDS011;4364;52.426;9.424;2023-06-22T14:32:55;17.55;;;15.85;;
8652;SDS011;4364;52.426;9.424;2023-06-22T14:35:22;19.45;;;17.55;;
8652;SDS011;4364;52.426;9.424;2023-06-22T14:37:50;21.17;;;19.02;;
8652;SDS011;4364;52.426;9.424;2023-06-22T14:40:16;21.27;;;19.13;;
8652;SDS011;4364;52.426;9.424;2023-06-22T14:42:43;24.35;;;21.63;;
8652;SDS011;4364;52.426;9.424;2023-06-22T14:45:09;24.33;;;21.77;;
8652;SDS011;4364;52.426;9.424;2023-06-22T14:47:36;24.88;;;22.15;;
8652;SDS011;4364;52.426;9.424;2023-06-22T14:50:03;26.67;;;23.80;;
8652;SDS011;4364;52.426;9.424;2023-06-22T14:52:30;23.45;;;20.27;;
8652;SDS011;4364;52.426;9.424;2023-06-22T14:54:57;23.23;;;20.88;;
8652;SDS011;4364;52.426;9.424;2023-06-22T14:57:23;22.55;;;20.10;;
8652;SDS011;4364;52.426;9.424;2023-06-22T14:59:50;25.35;;;22.65;;
8652;SDS011;4364;52.426;9.424;2023-06-22T15:02:16;26.30;;;23.65;;
8652;SDS011;4364;52.426;9.424;2023-06-22T15:04:43;28.13;;;24.75;;
8652;SDS011;4364;52.426;9.424;2023-06-22T15:07:10;25.88;;;23.10;;